sensor_id;sensor_type;location;lat;lon;timestamp;P1;durP1;ratioP1;P2;durP2;ratioP2
52868;SDS011;39100;53.480;6.158;2023-05-23T00:00:39;8.95;;;2.97;;
52868;SDS011;39100;53.480;6.158;2023-05-23T00:03:06;8.23;;;2.97;;
52868;SDS011;39100;53.480;6.158;2023-05-23T00:05:32;7.80;;;2.42;;
52868;SDS011;39100;53.480;6.158;2023-05-23T00:07:59;9.85;;;2.55;;
52868;SDS011;39100;53.480;6.158;2023-05-23T00:10:25;7.57;;;3.05;;
52868;SDS011;39100;53.480;6.158;2023-05-23T00:12:51;6.47;;;2.45;;
52868;SDS011;39100;53.480;6.158;2023-05-23T00:15:17;7.30;;;2.40;;
52868;SDS011;39100;53.480;6.158;2023-05-23T00:17:43;9.38;;;2.63;;
52868;SDS011;39100;53.480;6.158;2023-05-23T00:20:09;10.13;;;3.00;;
52868;SDS011;39100;53.480;6.158;2023-05-23T00:22:38;9.05;;;3.05;;
52868;SDS011;39100;53.480;6.158;2023-05-23T00:25:07;9.13;;;3.00;;
52868;SDS011;39100;53.480;6.158;2023-05-23T00:27:33;9.00;;;2.58;;
52868;SDS011;39100;53.480;6.158;2023-05-23T00:29:59;10.52;;;2.92;;
52868;SDS011;39100;53.480;6.158;2023-05-23T00:32:25;6.68;;;2.38;;
52868;SDS011;39100;53.480;6.158;2023-05-23T00:34:51;8.52;;;3.22;;
52868;SDS011;39100;53.480;6.158;2023-05-23T00:37:18;10.80;;;3.55;;
52868;SDS011;39100;53.480;6.158;2023-05-23T00:39:44;7.25;;;2.85;;
52868;SDS011;39100;53.480;6.158;2023-05-23T00:42:10;13.43;;;3.60;;
52868;SDS011;39100;53.480;6.158;2023-05-23T00:44:35;10.90;;;3.13;;
52868;SDS011;39100;53.480;6.158;2023-05-23T00:47:01;10.05;;;3.17;;
52868;SDS011;39100;53.480;6.158;2023-05-23T00:49:27;10.60;;;3.65;;
52868;SDS011;39100;53.480;6.158;2023-05-23T00:51:53;10.35;;;4.20;;
52868;SDS011;39100;53.480;6.158;2023-05-23T00:54:23;5.35;;;3.22;;
52868;SDS011;39100;53.480;6.158;2023-05-23T00:56:51;13.02;;;4.82;;
52868;SDS011;39100;53.480;6.158;2023-05-23T00:59:17;9.43;;;3.50;;
52868;SDS011;39100;53.480;6.158;2023-05-23T01:01:45;10.30;;;3.70;;
52868;SDS011;39100;53.480;6.158;2023-05-23T01:04:12;8.95;;;3.30;;
52868;SDS011;39100;53.480;6.158;2023-05-23T01:06:38;8.40;;;4.50;;
52868;SDS011;39100;53.480;6.158;2023-05-23T01:09:04;9.32;;;3.42;;
52868;SDS011;39100;53.480;6.158;2023-05-23T01:11:44;9.45;;;3.85;;
52868;SDS011;39100;53.480;6.158;2023-05-23T01:14:46;9.13;;;3.47;;
52868;SDS011;39100;53.480;6.158;2023-05-23T01:17:25;8.75;;;3.13;;
52868;SDS011;39100;53.480;6.158;2023-05-23T01:20:03;10.27;;;3.58;;
52868;SDS011;39100;53.480;6.158;2023-05-23T01:22:46;8.73;;;3.78;;
52868;SDS011;39100;53.480;6.158;2023-05-23T01:28:19;11.93;;;3.47;;
52868;SDS011;39100;53.480;6.158;2023-05-23T01:30:45;11.75;;;2.90;;
52868;SDS011;39100;53.480;6.158;2023-05-23T01:33:16;9.27;;;3.63;;
52868;SDS011;39100;53.480;6.158;2023-05-23T01:35:44;8.25;;;3.33;;
52868;SDS011;39100;53.480;6.158;2023-05-23T01:38:10;7.10;;;3.08;;
52868;SDS011;39100;53.480;6.158;2023-05-23T01:40:36;8.15;;;3.67;;
52868;SDS011;39100;53.480;6.158;2023-05-23T01:43:01;9.55;;;3.10;;
52868;SDS011;39100;53.480;6.158;2023-05-23T01:45:27;12.20;;;3.50;;
52868;SDS011;39100;53.480;6.158;2023-05-23T01:47:53;8.43;;;3.10;;
52868;SDS011;39100;53.480;6.158;2023-05-23T01:50:20;11.00;;;3.90;;
52868;SDS011;39100;53.480;6.158;2023-05-23T01:52:47;9.18;;;3.35;;
52868;SDS011;39100;53.480;6.158;2023-05-23T01:55:13;8.40;;;3.30;;
52868;SDS011;39100;53.480;6.158;2023-05-23T01:57:42;8.77;;;3.45;;
52868;SDS011;39100;53.480;6.158;2023-05-23T02:00:12;10.98;;;3.58;;
52868;SDS011;39100;53.480;6.158;2023-05-23T02:02:39;9.77;;;3.03;;
52868;SDS011;39100;53.480;6.158;2023-05-23T02:05:05;9.93;;;3.95;;
52868;SDS011;39100;53.480;6.158;2023-05-23T02:07:31;14.02;;;3.88;;
52868;SDS011;39100;53.480;6.158;2023-05-23T02:09:56;7.15;;;3.47;;
52868;SDS011;39100;53.480;6.158;2023-05-23T02:12:22;8.77;;;3.45;;
52868;SDS011;39100;53.480;6.158;2023-05-23T02:14:48;12.68;;;4.35;;
52868;SDS011;39100;53.480;6.158;2023-05-23T02:17:16;10.38;;;3.53;;
52868;SDS011;39100;53.480;6.158;2023-05-23T02:19:42;8.20;;;2.92;;
52868;SDS011;39100;53.480;6.158;2023-05-23T02:22:07;7.22;;;2.88;;
52868;SDS011;39100;53.480;6.158;2023-05-23T02:24:33;6.53;;;2.70;;
52868;SDS011;39100;53.480;6.158;2023-05-23T02:26:59;5.75;;;2.92;;
52868;SDS011;39100;53.480;6.158;2023-05-23T02:29:24;9.20;;;2.85;;
52868;SDS011;39100;53.480;6.158;2023-05-23T02:31:50;8.05;;;2.45;;
52868;SDS011;39100;53.480;6.158;2023-05-23T02:34:15;11.85;;;3.00;;
52868;SDS011;39100;53.480;6.158;2023-05-23T02:36:41;9.02;;;3.22;;
52868;SDS011;39100;53.480;6.158;2023-05-23T02:39:06;8.38;;;3.05;;
52868;SDS011;39100;53.480;6.158;2023-05-23T02:41:32;7.28;;;2.72;;
52868;SDS011;39100;53.480;6.158;2023-05-23T02:43:57;12.43;;;3.65;;
52868;SDS011;39100;53.480;6.158;2023-05-23T02:46:23;7.47;;;2.47;;
52868;SDS011;39100;53.480;6.158;2023-05-23T02:48:49;9.45;;;2.33;;
52868;SDS011;39100;53.480;6.158;2023-05-23T02:51:14;6.88;;;2.00;;
52868;SDS011;39100;53.480;6.158;2023-05-23T02:53:40;8.38;;;3.30;;
52868;SDS011;39100;53.480;6.158;2023-05-23T02:56:06;3.25;;;1.70;;
52868;SDS011;39100;53.480;6.158;2023-05-23T02:58:32;5.15;;;1.73;;
52868;SDS011;39100;53.480;6.158;2023-05-23T03:01:02;7.13;;;1.88;;
52868;SDS011;39100;53.480;6.158;2023-05-23T03:03:28;8.40;;;2.13;;
52868;SDS011;39100;53.480;6.158;2023-05-23T03:05:56;3.42;;;1.90;;
52868;SDS011;39100;53.480;6.158;2023-05-23T03:08:22;10.32;;;2.50;;
52868;SDS011;39100;53.480;6.158;2023-05-23T03:10:48;6.03;;;1.98;;
52868;SDS011;39100;53.480;6.158;2023-05-23T03:13:13;6.57;;;2.20;;
52868;SDS011;39100;53.480;6.158;2023-05-23T03:15:40;4.63;;;1.80;;
52868;SDS011;39100;53.480;6.158;2023-05-23T03:18:05;6.93;;;1.98;;
52868;SDS011;39100;53.480;6.158;2023-05-23T03:20:31;6.25;;;1.80;;
52868;SDS011;39100;53.480;6.158;2023-05-23T03:22:57;4.47;;;1.58;;
52868;SDS011;39100;53.480;6.158;2023-05-23T03:25:22;9.60;;;2.53;;
52868;SDS011;39100;53.480;6.158;2023-05-23T03:27:48;5.68;;;2.00;;
52868;SDS011;39100;53.480;6.158;2023-05-23T03:30:13;5.75;;;2.03;;
52868;SDS011;39100;53.480;6.158;2023-05-23T03:32:39;8.00;;;2.25;;
52868;SDS011;39100;53.480;6.158;2023-05-23T03:35:05;7.90;;;1.70;;
52868;SDS011;39100;53.480;6.158;2023-05-23T03:37:31;5.97;;;1.73;;
52868;SDS011;39100;53.480;6.158;2023-05-23T03:39:56;8.40;;;2.67;;
52868;SDS011;39100;53.480;6.158;2023-05-23T03:42:22;7.25;;;2.38;;
52868;SDS011;39100;53.480;6.158;2023-05-23T03:44:47;7.28;;;1.77;;
52868;SDS011;39100;53.480;6.158;2023-05-23T03:47:13;2.65;;;1.92;;
52868;SDS011;39100;53.480;6.158;2023-05-23T03:49:38;2.78;;;2.08;;
52868;SDS011;39100;53.480;6.158;2023-05-23T03:52:04;12.48;;;2.78;;
52868;SDS011;39100;53.480;6.158;2023-05-23T03:54:30;7.53;;;2.25;;
52868;SDS011;39100;53.480;6.158;2023-05-23T03:56:55;6.43;;;2.20;;
52868;SDS011;39100;53.480;6.158;2023-05-23T03:59:21;7.43;;;2.47;;
52868;SDS011;39100;53.480;6.158;2023-05-23T04:01:46;8.00;;;2.33;;
52868;SDS011;39100;53.480;6.158;2023-05-23T04:04:12;7.13;;;2.40;;
52868;SDS011;39100;53.480;6.158;2023-05-23T04:06:37;11.23;;;2.58;;
52868;SDS011;39100;53.480;6.158;2023-05-23T04:09:03;9.05;;;2.58;;
52868;SDS011;39100;53.480;6.158;2023-05-23T04:11:30;6.53;;;2.30;;
52868;SDS011;39100;53.480;6.158;2023-05-23T04:13:56;4.70;;;1.95;;
52868;SDS011;39100;53.480;6.158;2023-05-23T04:16:22;4.47;;;2.08;;
52868;SDS011;39100;53.480;6.158;2023-05-23T04:18:48;9.60;;;2.10;;
52868;SDS011;39100;53.480;6.158;2023-05-23T04:21:14;6.72;;;2.25;;
52868;SDS011;39100;53.480;6.158;2023-05-23T04:23:39;7.80;;;2.47;;
52868;SDS011;39100;53.480;6.158;2023-05-23T04:26:05;6.40;;;2.17;;
52868;SDS011;39100;53.480;6.158;2023-05-23T04:28:31;6.30;;;2.67;;
52868;SDS011;39100;53.480;6.158;2023-05-23T04:30:56;6.53;;;2.67;;
52868;SDS011;39100;53.480;6.158;2023-05-23T04:33:22;7.35;;;2.10;;
52868;SDS011;39100;53.480;6.158;2023-05-23T04:35:48;6.55;;;2.22;;
52868;SDS011;39100;53.480;6.158;2023-05-23T04:38:14;8.90;;;2.45;;
52868;SDS011;39100;53.480;6.158;2023-05-23T04:40:39;4.75;;;2.78;;
52868;SDS011;39100;53.480;6.158;2023-05-23T04:43:05;4.78;;;2.20;;
52868;SDS011;39100;53.480;6.158;2023-05-23T04:45:33;5.60;;;2.00;;
52868;SDS011;39100;53.480;6.158;2023-05-23T04:47:58;7.07;;;2.58;;
52868;SDS011;39100;53.480;6.158;2023-05-23T04:50:24;7.93;;;2.60;;
52868;SDS011;39100;53.480;6.158;2023-05-23T04:52:50;7.93;;;2.35;;
52868;SDS011;39100;53.480;6.158;2023-05-23T04:55:15;6.35;;;2.25;;
52868;SDS011;39100;53.480;6.158;2023-05-23T04:57:41;5.70;;;2.75;;
52868;SDS011;39100;53.480;6.158;2023-05-23T05:00:07;10.57;;;3.17;;
52868;SDS011;39100;53.480;6.158;2023-05-23T05:02:34;4.28;;;1.85;;
52868;SDS011;39100;53.480;6.158;2023-05-23T05:05:01;3.58;;;1.48;;
52868;SDS011;39100;53.480;6.158;2023-05-23T05:07:28;4.40;;;1.73;;
52868;SDS011;39100;53.480;6.158;2023-05-23T05:09:54;4.55;;;1.52;;
52868;SDS011;39100;53.480;6.158;2023-05-23T05:12:19;7.00;;;1.67;;
52868;SDS011;39100;53.480;6.158;2023-05-23T05:14:45;6.32;;;1.85;;
52868;SDS011;39100;53.480;6.158;2023-05-23T05:17:10;6.10;;;2.80;;
52868;SDS011;39100;53.480;6.158;2023-05-23T05:19:36;4.63;;;1.80;;
52868;SDS011;39100;53.480;6.158;2023-05-23T05:22:02;5.28;;;1.58;;
52868;SDS011;39100;53.480;6.158;2023-05-23T05:24:28;7.50;;;1.90;;
52868;SDS011;39100;53.480;6.158;2023-05-23T05:26:54;4.10;;;1.52;;
52868;SDS011;39100;53.480;6.158;2023-05-23T05:29:20;5.43;;;2.15;;
52868;SDS011;39100;53.480;6.158;2023-05-23T05:31:46;5.38;;;1.30;;
52868;SDS011;39100;53.480;6.158;2023-05-23T05:34:11;6.95;;;2.53;;
52868;SDS011;39100;53.480;6.158;2023-05-23T05:36:37;4.25;;;1.63;;
52868;SDS011;39100;53.480;6.158;2023-05-23T05:39:09;3.88;;;1.30;;
52868;SDS011;39100;53.480;6.158;2023-05-23T05:41:35;6.13;;;1.55;;
52868;SDS011;39100;53.480;6.158;2023-05-23T05:44:01;7.60;;;1.83;;
52868;SDS011;39100;53.480;6.158;2023-05-23T05:46:27;7.30;;;2.28;;
52868;SDS011;39100;53.480;6.158;2023-05-23T05:48:52;6.13;;;1.58;;
52868;SDS011;39100;53.480;6.158;2023-05-23T05:51:18;6.80;;;1.98;;
52868;SDS011;39100;53.480;6.158;2023-05-23T05:53:43;6.28;;;1.67;;
52868;SDS011;39100;53.480;6.158;2023-05-23T05:56:09;9.60;;;2.47;;
52868;SDS011;39100;53.480;6.158;2023-05-23T05:58:34;7.70;;;1.73;;
52868;SDS011;39100;53.480;6.158;2023-05-23T06:01:00;5.97;;;1.67;;
52868;SDS011;39100;53.480;6.158;2023-05-23T06:03:25;4.25;;;1.80;;
52868;SDS011;39100;53.480;6.158;2023-05-23T06:05:51;3.85;;;1.20;;
52868;SDS011;39100;53.480;6.158;2023-05-23T06:08:17;7.03;;;1.75;;
52868;SDS011;39100;53.480;6.158;2023-05-23T06:10:42;6.63;;;1.83;;
52868;SDS011;39100;53.480;6.158;2023-05-23T06:13:08;3.17;;;1.80;;
52868;SDS011;39100;53.480;6.158;2023-05-23T06:15:34;5.18;;;1.42;;
52868;SDS011;39100;53.480;6.158;2023-05-23T06:17:59;7.50;;;1.45;;
52868;SDS011;39100;53.480;6.158;2023-05-23T06:20:25;5.38;;;1.45;;
52868;SDS011;39100;53.480;6.158;2023-05-23T06:22:50;7.32;;;1.25;;
52868;SDS011;39100;53.480;6.158;2023-05-23T06:25:16;6.60;;;1.48;;
52868;SDS011;39100;53.480;6.158;2023-05-23T06:27:42;4.32;;;1.23;;
52868;SDS011;39100;53.480;6.158;2023-05-23T06:30:08;6.03;;;1.38;;
52868;SDS011;39100;53.480;6.158;2023-05-23T06:32:34;6.72;;;2.15;;
52868;SDS011;39100;53.480;6.158;2023-05-23T06:35:00;6.85;;;1.88;;
52868;SDS011;39100;53.480;6.158;2023-05-23T06:37:26;8.88;;;1.70;;
52868;SDS011;39100;53.480;6.158;2023-05-23T06:39:52;5.20;;;1.50;;
52868;SDS011;39100;53.480;6.158;2023-05-23T06:42:17;9.30;;;2.10;;
52868;SDS011;39100;53.480;6.158;2023-05-23T06:44:43;5.47;;;1.02;;
52868;SDS011;39100;53.480;6.158;2023-05-23T06:47:08;5.80;;;1.15;;
52868;SDS011;39100;53.480;6.158;2023-05-23T06:49:34;6.75;;;1.17;;
52868;SDS011;39100;53.480;6.158;2023-05-23T06:51:59;3.88;;;1.13;;
52868;SDS011;39100;53.480;6.158;2023-05-23T06:54:25;7.40;;;1.88;;
52868;SDS011;39100;53.480;6.158;2023-05-23T06:56:50;5.28;;;1.30;;
52868;SDS011;39100;53.480;6.158;2023-05-23T06:59:16;7.13;;;2.00;;
52868;SDS011;39100;53.480;6.158;2023-05-23T07:01:43;7.53;;;1.60;;
52868;SDS011;39100;53.480;6.158;2023-05-23T07:04:08;2.85;;;1.20;;
52868;SDS011;39100;53.480;6.158;2023-05-23T07:06:36;8.45;;;1.88;;
52868;SDS011;39100;53.480;6.158;2023-05-23T07:09:03;4.43;;;1.33;;
52868;SDS011;39100;53.480;6.158;2023-05-23T07:11:29;8.40;;;1.55;;
52868;SDS011;39100;53.480;6.158;2023-05-23T07:13:54;4.95;;;1.27;;
52868;SDS011;39100;53.480;6.158;2023-05-23T07:16:20;3.55;;;1.20;;
52868;SDS011;39100;53.480;6.158;2023-05-23T07:18:45;6.03;;;0.85;;
52868;SDS011;39100;53.480;6.158;2023-05-23T07:21:11;6.82;;;1.13;;
52868;SDS011;39100;53.480;6.158;2023-05-23T07:23:36;6.32;;;1.27;;
52868;SDS011;39100;53.480;6.158;2023-05-23T07:26:02;6.05;;;1.92;;
52868;SDS011;39100;53.480;6.158;2023-05-23T07:28:28;5.25;;;1.40;;
52868;SDS011;39100;53.480;6.158;2023-05-23T07:30:54;6.28;;;1.88;;
52868;SDS011;39100;53.480;6.158;2023-05-23T07:33:22;9.55;;;1.13;;
52868;SDS011;39100;53.480;6.158;2023-05-23T07:35:47;4.75;;;1.10;;
52868;SDS011;39100;53.480;6.158;2023-05-23T07:38:13;3.10;;;1.42;;
52868;SDS011;39100;53.480;6.158;2023-05-23T07:40:38;7.82;;;1.70;;
52868;SDS011;39100;53.480;6.158;2023-05-23T07:43:04;5.90;;;1.65;;
52868;SDS011;39100;53.480;6.158;2023-05-23T07:45:30;6.65;;;1.42;;
52868;SDS011;39100;53.480;6.158;2023-05-23T07:47:55;6.35;;;1.10;;
52868;SDS011;39100;53.480;6.158;2023-05-23T07:50:21;3.97;;;1.40;;
52868;SDS011;39100;53.480;6.158;2023-05-23T07:52:47;6.55;;;1.88;;
52868;SDS011;39100;53.480;6.158;2023-05-23T07:55:15;4.93;;;1.52;;
52868;SDS011;39100;53.480;6.158;2023-05-23T07:57:40;4.20;;;1.73;;
52868;SDS011;39100;53.480;6.158;2023-05-23T08:00:06;8.25;;;1.88;;
52868;SDS011;39100;53.480;6.158;2023-05-23T08:02:33;6.25;;;1.52;;
52868;SDS011;39100;53.480;6.158;2023-05-23T08:04:59;3.00;;;1.60;;
52868;SDS011;39100;53.480;6.158;2023-05-23T08:07:25;6.50;;;1.30;;
52868;SDS011;39100;53.480;6.158;2023-05-23T08:09:51;3.08;;;1.25;;
52868;SDS011;39100;53.480;6.158;2023-05-23T08:12:16;4.72;;;1.00;;
52868;SDS011;39100;53.480;6.158;2023-05-23T08:14:42;7.78;;;1.92;;
52868;SDS011;39100;53.480;6.158;2023-05-23T08:17:07;4.82;;;1.45;;
52868;SDS011;39100;53.480;6.158;2023-05-23T08:19:33;5.90;;;1.35;;
52868;SDS011;39100;53.480;6.158;2023-05-23T08:21:58;3.92;;;1.00;;
52868;SDS011;39100;53.480;6.158;2023-05-23T08:24:24;4.55;;;1.35;;
52868;SDS011;39100;53.480;6.158;2023-05-23T08:26:50;6.38;;;1.40;;
52868;SDS011;39100;53.480;6.158;2023-05-23T08:29:16;4.35;;;1.10;;
52868;SDS011;39100;53.480;6.158;2023-05-23T08:31:42;5.50;;;1.50;;
52868;SDS011;39100;53.480;6.158;2023-05-23T08:34:08;6.25;;;1.45;;
52868;SDS011;39100;53.480;6.158;2023-05-23T08:36:35;4.90;;;1.30;;
52868;SDS011;39100;53.480;6.158;2023-05-23T08:39:00;3.97;;;1.42;;
52868;SDS011;39100;53.480;6.158;2023-05-23T08:41:28;3.30;;;0.80;;
52868;SDS011;39100;53.480;6.158;2023-05-23T08:43:54;5.32;;;0.90;;
52868;SDS011;39100;53.480;6.158;2023-05-23T08:46:21;10.18;;;1.10;;
52868;SDS011;39100;53.480;6.158;2023-05-23T08:48:51;6.43;;;1.10;;
52868;SDS011;39100;53.480;6.158;2023-05-23T08:51:19;5.15;;;1.77;;
52868;SDS011;39100;53.480;6.158;2023-05-23T08:53:46;3.05;;;1.05;;
52868;SDS011;39100;53.480;6.158;2023-05-23T08:56:12;5.78;;;1.38;;
52868;SDS011;39100;53.480;6.158;2023-05-23T08:58:39;5.80;;;1.30;;
52868;SDS011;39100;53.480;6.158;2023-05-23T09:01:08;6.10;;;1.45;;
52868;SDS011;39100;53.480;6.158;2023-05-23T09:03:35;7.43;;;1.88;;
52868;SDS011;39100;53.480;6.158;2023-05-23T09:06:05;5.63;;;1.35;;
52868;SDS011;39100;53.480;6.158;2023-05-23T09:08:32;5.63;;;0.95;;
52868;SDS011;39100;53.480;6.158;2023-05-23T09:10:58;5.97;;;1.23;;
52868;SDS011;39100;53.480;6.158;2023-05-23T09:13:27;3.65;;;1.60;;
52868;SDS011;39100;53.480;6.158;2023-05-23T09:15:55;6.45;;;1.40;;
52868;SDS011;39100;53.480;6.158;2023-05-23T09:18:23;6.65;;;1.55;;
52868;SDS011;39100;53.480;6.158;2023-05-23T09:20:49;8.32;;;1.63;;
52868;SDS011;39100;53.480;6.158;2023-05-23T09:23:15;6.25;;;1.40;;
52868;SDS011;39100;53.480;6.158;2023-05-23T09:25:47;6.43;;;1.42;;
52868;SDS011;39100;53.480;6.158;2023-05-23T09:30:38;5.60;;;1.20;;
52868;SDS011;39100;53.480;6.158;2023-05-23T09:33:04;6.38;;;1.38;;
52868;SDS011;39100;53.480;6.158;2023-05-23T09:35:29;3.95;;;1.10;;
52868;SDS011;39100;53.480;6.158;2023-05-23T09:37:56;6.00;;;1.33;;
52868;SDS011;39100;53.480;6.158;2023-05-23T09:40:29;3.92;;;1.25;;
52868;SDS011;39100;53.480;6.158;2023-05-23T09:42:56;5.35;;;0.98;;
52868;SDS011;39100;53.480;6.158;2023-05-23T09:45:30;4.32;;;0.90;;
52868;SDS011;39100;53.480;6.158;2023-05-23T09:47:57;7.68;;;1.17;;
52868;SDS011;39100;53.480;6.158;2023-05-23T09:50:24;10.50;;;2.08;;
52868;SDS011;39100;53.480;6.158;2023-05-23T09:52:54;8.18;;;1.63;;
52868;SDS011;39100;53.480;6.158;2023-05-23T09:55:21;3.60;;;0.90;;
52868;SDS011;39100;53.480;6.158;2023-05-23T09:57:48;5.60;;;1.38;;
52868;SDS011;39100;53.480;6.158;2023-05-23T10:00:17;5.95;;;1.33;;
52868;SDS011;39100;53.480;6.158;2023-05-23T10:02:54;5.10;;;1.33;;
52868;SDS011;39100;53.480;6.158;2023-05-23T10:05:29;5.30;;;1.35;;
52868;SDS011;39100;53.480;6.158;2023-05-23T10:08:07;6.20;;;1.45;;
52868;SDS011;39100;53.480;6.158;2023-05-23T10:10:34;2.78;;;1.27;;
52868;SDS011;39100;53.480;6.158;2023-05-23T10:13:33;4.10;;;0.93;;
52868;SDS011;39100;53.480;6.158;2023-05-23T10:16:44;3.17;;;1.10;;
52868;SDS011;39100;53.480;6.158;2023-05-23T10:18:58;7.95;;;1.45;;
52868;SDS011;39100;53.480;6.158;2023-05-23T10:21:32;4.38;;;1.10;;
52868;SDS011;39100;53.480;6.158;2023-05-23T10:24:00;4.63;;;1.05;;
52868;SDS011;39100;53.480;6.158;2023-05-23T10:26:29;2.97;;;1.17;;
52868;SDS011;39100;53.480;6.158;2023-05-23T10:28:56;4.30;;;0.85;;
52868;SDS011;39100;53.480;6.158;2023-05-23T10:31:22;6.35;;;1.23;;
52868;SDS011;39100;53.480;6.158;2023-05-23T10:34:00;3.75;;;0.85;;
52868;SDS011;39100;53.480;6.158;2023-05-23T10:36:34;1.60;;;1.13;;
52868;SDS011;39100;53.480;6.158;2023-05-23T10:39:26;3.80;;;1.02;;
52868;SDS011;39100;53.480;6.158;2023-05-23T10:42:00;2.85;;;1.00;;
52868;SDS011;39100;53.480;6.158;2023-05-23T10:44:32;6.38;;;1.20;;
52868;SDS011;39100;53.480;6.158;2023-05-23T10:46:58;7.13;;;1.65;;
52868;SDS011;39100;53.480;6.158;2023-05-23T10:49:36;3.72;;;1.40;;
52868;SDS011;39100;53.480;6.158;2023-05-23T10:52:06;5.95;;;1.70;;
52868;SDS011;39100;53.480;6.158;2023-05-23T10:54:35;7.57;;;1.85;;
52868;SDS011;39100;53.480;6.158;2023-05-23T10:57:10;5.43;;;1.48;;
52868;SDS011;39100;53.480;6.158;2023-05-23T10:59:40;1.90;;;0.93;;
52868;SDS011;39100;53.480;6.158;2023-05-23T11:02:17;3.40;;;0.77;;
52868;SDS011;39100;53.480;6.158;2023-05-23T11:04:43;8.32;;;1.90;;
52868;SDS011;39100;53.480;6.158;2023-05-23T11:07:31;5.07;;;1.15;;
52868;SDS011;39100;53.480;6.158;2023-05-23T11:10:03;6.43;;;1.23;;
52868;SDS011;39100;53.480;6.158;2023-05-23T11:12:42;5.00;;;1.20;;
52868;SDS011;39100;53.480;6.158;2023-05-23T11:17:50;7.38;;;1.42;;
52868;SDS011;39100;53.480;6.158;2023-05-23T11:20:18;4.78;;;1.42;;
52868;SDS011;39100;53.480;6.158;2023-05-23T11:23:08;7.20;;;1.52;;
52868;SDS011;39100;53.480;6.158;2023-05-23T11:25:39;2.80;;;1.02;;
52868;SDS011;39100;53.480;6.158;2023-05-23T11:28:10;3.95;;;1.23;;
52868;SDS011;39100;53.480;6.158;2023-05-23T11:30:36;3.65;;;0.80;;
52868;SDS011;39100;53.480;6.158;2023-05-23T11:33:10;3.53;;;0.70;;
52868;SDS011;39100;53.480;6.158;2023-05-23T11:35:40;3.75;;;1.17;;
52868;SDS011;39100;53.480;6.158;2023-05-23T11:38:06;3.13;;;0.60;;
52868;SDS011;39100;53.480;6.158;2023-05-23T11:40:33;3.33;;;0.90;;
52868;SDS011;39100;53.480;6.158;2023-05-23T11:43:09;5.07;;;1.50;;
52868;SDS011;39100;53.480;6.158;2023-05-23T11:45:39;2.58;;;0.90;;
52868;SDS011;39100;53.480;6.158;2023-05-23T11:48:14;4.70;;;1.25;;
52868;SDS011;39100;53.480;6.158;2023-05-23T11:50:45;2.83;;;1.00;;
52868;SDS011;39100;53.480;6.158;2023-05-23T11:53:11;7.75;;;1.05;;
52868;SDS011;39100;53.480;6.158;2023-05-23T11:55:46;2.47;;;0.70;;
52868;SDS011;39100;53.480;6.158;2023-05-23T11:58:17;5.30;;;1.13;;
52868;SDS011;39100;53.480;6.158;2023-05-23T12:00:44;3.92;;;0.73;;
52868;SDS011;39100;53.480;6.158;2023-05-23T12:03:10;3.35;;;1.00;;
52868;SDS011;39100;53.480;6.158;2023-05-23T12:05:36;4.25;;;1.45;;
52868;SDS011;39100;53.480;6.158;2023-05-23T12:08:01;7.22;;;1.17;;
52868;SDS011;39100;53.480;6.158;2023-05-23T12:10:27;5.43;;;1.42;;
52868;SDS011;39100;53.480;6.158;2023-05-23T12:12:53;3.78;;;1.25;;
52868;SDS011;39100;53.480;6.158;2023-05-23T12:15:21;6.78;;;1.00;;
52868;SDS011;39100;53.480;6.158;2023-05-23T12:17:52;2.63;;;0.85;;
52868;SDS011;39100;53.480;6.158;2023-05-23T12:20:19;2.78;;;0.95;;
52868;SDS011;39100;53.480;6.158;2023-05-23T12:22:45;7.10;;;1.52;;
52868;SDS011;39100;53.480;6.158;2023-05-23T12:25:10;4.50;;;1.13;;
52868;SDS011;39100;53.480;6.158;2023-05-23T12:27:38;5.22;;;0.75;;
52868;SDS011;39100;53.480;6.158;2023-05-23T12:30:09;6.03;;;0.80;;
52868;SDS011;39100;53.480;6.158;2023-05-23T12:32:38;4.28;;;0.98;;
52868;SDS011;39100;53.480;6.158;2023-05-23T12:35:06;6.32;;;1.27;;
52868;SDS011;39100;53.480;6.158;2023-05-23T12:37:32;7.78;;;1.33;;
52868;SDS011;39100;53.480;6.158;2023-05-23T12:40:07;5.15;;;1.00;;
52868;SDS011;39100;53.480;6.158;2023-05-23T12:42:42;3.80;;;1.20;;
52868;SDS011;39100;53.480;6.158;2023-05-23T12:45:30;5.18;;;1.15;;
52868;SDS011;39100;53.480;6.158;2023-05-23T12:48:00;3.38;;;1.17;;
52868;SDS011;39100;53.480;6.158;2023-05-23T12:50:30;7.78;;;1.85;;
52868;SDS011;39100;53.480;6.158;2023-05-23T12:52:55;5.07;;;0.95;;
52868;SDS011;39100;53.480;6.158;2023-05-23T12:55:21;4.05;;;0.82;;
52868;SDS011;39100;53.480;6.158;2023-05-23T12:57:47;2.88;;;1.40;;
52868;SDS011;39100;53.480;6.158;2023-05-23T13:00:13;3.97;;;1.02;;
52868;SDS011;39100;53.480;6.158;2023-05-23T13:02:38;3.47;;;1.02;;
52868;SDS011;39100;53.480;6.158;2023-05-23T13:05:04;7.63;;;1.10;;
52868;SDS011;39100;53.480;6.158;2023-05-23T13:07:30;4.88;;;0.90;;
52868;SDS011;39100;53.480;6.158;2023-05-23T13:09:56;2.80;;;0.63;;
52868;SDS011;39100;53.480;6.158;2023-05-23T13:12:21;8.55;;;1.30;;
52868;SDS011;39100;53.480;6.158;2023-05-23T13:14:48;3.15;;;0.85;;
52868;SDS011;39100;53.480;6.158;2023-05-23T13:17:14;4.13;;;1.52;;
52868;SDS011;39100;53.480;6.158;2023-05-23T13:19:39;4.75;;;0.65;;
52868;SDS011;39100;53.480;6.158;2023-05-23T13:22:05;4.15;;;1.23;;
52868;SDS011;39100;53.480;6.158;2023-05-23T13:24:34;3.30;;;1.00;;
52868;SDS011;39100;53.480;6.158;2023-05-23T13:27:04;3.78;;;1.17;;
52868;SDS011;39100;53.480;6.158;2023-05-23T13:29:30;3.47;;;0.98;;
52868;SDS011;39100;53.480;6.158;2023-05-23T13:31:56;3.17;;;0.63;;
52868;SDS011;39100;53.480;6.158;2023-05-23T13:34:22;4.25;;;0.98;;
52868;SDS011;39100;53.480;6.158;2023-05-23T13:36:48;6.80;;;1.70;;
52868;SDS011;39100;53.480;6.158;2023-05-23T13:39:14;4.97;;;0.95;;
52868;SDS011;39100;53.480;6.158;2023-05-23T13:41:39;3.65;;;0.80;;
52868;SDS011;39100;53.480;6.158;2023-05-23T13:44:05;4.93;;;1.20;;
52868;SDS011;39100;53.480;6.158;2023-05-23T13:46:30;3.58;;;0.88;;
52868;SDS011;39100;53.480;6.158;2023-05-23T13:48:56;4.28;;;0.95;;
52868;SDS011;39100;53.480;6.158;2023-05-23T13:51:21;4.68;;;1.00;;
52868;SDS011;39100;53.480;6.158;2023-05-23T13:53:47;8.70;;;1.50;;
52868;SDS011;39100;53.480;6.158;2023-05-23T13:56:13;4.65;;;0.95;;
52868;SDS011;39100;53.480;6.158;2023-05-23T13:58:39;4.93;;;0.80;;
52868;SDS011;39100;53.480;6.158;2023-05-23T14:01:06;3.90;;;1.00;;
52868;SDS011;39100;53.480;6.158;2023-05-23T14:03:33;3.83;;;1.15;;
52868;SDS011;39100;53.480;6.158;2023-05-23T14:05:58;4.90;;;1.08;;
52868;SDS011;39100;53.480;6.158;2023-05-23T14:08:24;3.85;;;0.80;;
52868;SDS011;39100;53.480;6.158;2023-05-23T14:10:49;2.67;;;0.77;;
52868;SDS011;39100;53.480;6.158;2023-05-23T14:13:15;8.27;;;0.95;;
52868;SDS011;39100;53.480;6.158;2023-05-23T14:15:41;5.15;;;1.35;;
52868;SDS011;39100;53.480;6.158;2023-05-23T14:18:06;6.97;;;0.98;;
52868;SDS011;39100;53.480;6.158;2023-05-23T14:20:32;7.43;;;1.42;;
52868;SDS011;39100;53.480;6.158;2023-05-23T14:22:57;4.18;;;0.93;;
52868;SDS011;39100;53.480;6.158;2023-05-23T14:25:23;2.67;;;1.15;;
52868;SDS011;39100;53.480;6.158;2023-05-23T14:27:49;8.35;;;1.02;;
52868;SDS011;39100;53.480;6.158;2023-05-23T14:30:14;5.18;;;0.98;;
52868;SDS011;39100;53.480;6.158;2023-05-23T14:32:40;4.65;;;0.63;;
52868;SDS011;39100;53.480;6.158;2023-05-23T14:35:06;4.05;;;0.85;;
52868;SDS011;39100;53.480;6.158;2023-05-23T14:37:34;2.90;;;0.60;;
52868;SDS011;39100;53.480;6.158;2023-05-23T14:39:59;2.40;;;0.55;;
52868;SDS011;39100;53.480;6.158;2023-05-23T14:42:25;2.30;;;0.82;;
52868;SDS011;39100;53.480;6.158;2023-05-23T14:44:52;6.95;;;1.52;;
52868;SDS011;39100;53.480;6.158;2023-05-23T14:47:18;4.93;;;1.40;;
52868;SDS011;39100;53.480;6.158;2023-05-23T14:49:44;4.38;;;0.98;;
52868;SDS011;39100;53.480;6.158;2023-05-23T14:52:09;8.38;;;1.35;;
52868;SDS011;39100;53.480;6.158;2023-05-23T14:54:36;5.60;;;0.82;;